Time;durP1;ratioP1;P1;durP2;ratioP2;P2;SDS_P1;SDS_P2;PMS_P1;PMS_P2;Temp;Humidity;BMP_temperature;BMP_pressure;BME280_temperature;BME280_humidity;BME280_pressure;Samples;Min_cycle;Max_cycle;Signal;HPM_P1;HPM_P2
2023/06/29 00:00:20;;;;;;;15.90;7.15;;;27.10;73.20;;;;;;5033984;28;20041;-75
2023/06/29 00:02:46;;;;;;;16.00;6.65;;;27.10;73.10;;;;;;5033909;28;20037;-76
2023/06/29 00:05:12;;;;;;;20.17;7.93;;;27.10;73.20;;;;;;5015965;28;20103;-76
2023/06/29 00:07:38;;;;;;;15.63;6.82;;;27.10;72.90;;;;;;5033776;28;20116;-76
2023/06/29 00:10:04;;;;;;;16.60;6.93;;;27.10;73.20;;;;;;5033625;28;20030;-76
2023/06/29 00:12:30;;;;;;;20.38;7.07;;;27.10;72.90;;;;;;5015773;28;20418;-76
2023/06/29 00:14:55;;;;;;;15.90;7.07;;;27.10;73.30;;;;;;5033816;28;20033;-76
2023/06/29 00:17:22;;;;;;;18.48;7.75;;;27.10;73.40;;;;;;5033634;28;20049;-77
2023/06/29 00:19:48;;;;;;;16.23;7.43;;;27.10;73.90;;;;;;5033948;28;20028;-77
2023/06/29 00:22:15;;;;;;;16.70;7.80;;;27.00;73.80;;;;;;5034280;28;20030;-76
2023/06/29 00:24:44;;;;;;;15.73;7.47;;;27.00;73.80;;;;;;5033609;28;20042;-76
2023/06/29 00:27:13;;;;;;;17.67;7.75;;;27.00;73.20;;;;;;5033806;28;20033;-76
2023/06/29 00:29:41;;;;;;;15.50;7.63;;;27.00;73.90;;;;;;5015385;28;20487;-74
2023/06/29 00:32:10;;;;;;;18.95;7.57;;;27.00;73.50;;;;;;5033609;28;20033;-75
2023/06/29 00:34:37;;;;;;;13.85;7.22;;;26.90;72.40;;;;;;5042128;28;20025;-75
2023/06/29 00:37:04;;;;;;;21.95;7.95;;;26.90;73.60;;;;;;5033545;28;20037;-78
2023/06/29 00:39:30;;;;;;;16.90;8.43;;;26.90;73.70;;;;;;5033503;28;20376;-76
2023/06/29 00:41:56;;;;;;;20.98;8.35;;;26.80;73.50;;;;;;5033383;28;20042;-76
2023/06/29 00:44:22;;;;;;;15.75;8.35;;;26.80;73.30;;;;;;5033001;28;20071;-76
2023/06/29 00:46:50;;;;;;;18.05;7.82;;;26.80;73.30;;;;;;5033253;28;20091;-75
2023/06/29 00:49:18;;;;;;;18.15;7.57;;;26.80;73.40;;;;;;5033372;28;20063;-76
2023/06/29 00:51:49;;;;;;;16.83;7.70;;;26.80;73.30;;;;;;5033074;28;20045;-76
2023/06/29 00:54:15;;;;;;;18.70;8.52;;;26.90;73.00;;;;;;5033045;28;20057;-76
2023/06/29 00:56:42;;;;;;;18.58;8.68;;;26.90;72.90;;;;;;5033047;28;20116;-75
2023/06/29 00:59:08;;;;;;;17.67;9.30;;;26.80;72.80;;;;;;5033432;28;20071;-74
2023/06/29 01:01:33;;;;;;;16.08;8.20;;;26.80;72.80;;;;;;5033617;28;20045;-75
2023/06/29 01:03:59;;;;;;;17.75;8.50;;;26.80;72.70;;;;;;5034873;28;20042;-77
2023/06/29 01:06:31;;;;;;;15.93;8.55;;;26.80;72.80;;;;;;5032834;28;20076;-76
2023/06/29 01:09:08;;;;;;;20.25;8.32;;;26.80;72.90;;;;;;5014551;28;20090;-74
2023/06/29 01:11:37;;;;;;;20.80;7.80;;;26.80;72.70;;;;;;5032701;28;20029;-75
2023/06/29 01:14:05;;;;;;;18.92;8.75;;;26.80;72.80;;;;;;5032492;28;20048;-75
2023/06/29 01:16:34;;;;;;;17.80;7.97;;;26.80;72.80;;;;;;5032574;28;20038;-77
2023/06/29 01:19:06;;;;;;;19.23;8.93;;;26.90;72.90;;;;;;5032706;28;20033;-75
2023/06/29 01:21:39;;;;;;;20.25;8.70;;;26.80;72.80;;;;;;5014790;28;20369;-75
2023/06/29 01:24:05;;;;;;;26.17;9.00;;;26.80;73.00;;;;;;5032630;28;20041;-76
2023/06/29 01:26:31;;;;;;;16.73;8.10;;;26.70;72.90;;;;;;5035086;28;20049;-76
2023/06/29 01:28:58;;;;;;;15.93;8.07;;;26.70;73.00;;;;;;5045864;28;20042;-76
2023/06/29 01:31:26;;;;;;;19.13;8.68;;;26.70;73.10;;;;;;5032204;28;20095;-74
2023/06/29 01:33:53;;;;;;;17.67;8.23;;;26.70;73.00;;;;;;5032324;28;20108;-75
2023/06/29 01:36:40;;;;;;;21.20;8.80;;;26.60;73.90;;;;;;5032093;28;20034;-75
2023/06/29 01:39:13;;;;;;;18.30;8.10;;;26.70;72.80;;;;;;5032045;28;20111;-75
2023/06/29 01:41:40;;;;;;;16.92;7.28;;;26.60;73.10;;;;;;5032129;28;20045;-75
2023/06/29 01:44:10;;;;;;;18.77;8.02;;;26.50;73.30;;;;;;5014117;28;20079;-76
2023/06/29 01:46:38;;;;;;;14.35;7.57;;;26.50;73.50;;;;;;5031963;28;20051;-76
2023/06/29 01:49:04;;;;;;;16.75;8.55;;;26.50;73.60;;;;;;5031943;28;20034;-76
2023/06/29 01:51:30;;;;;;;21.10;7.93;;;26.50;73.50;;;;;;5032088;28;20439;-76
2023/06/29 01:53:57;;;;;;;17.33;8.18;;;26.50;73.70;;;;;;5032129;28;20061;-76
2023/06/29 01:56:22;;;;;;;13.82;8.25;;;26.50;73.80;;;;;;5032004;28;20440;-76
2023/06/29 01:58:48;;;;;;;19.42;8.45;;;26.50;73.90;;;;;;5032012;28;20045;-77
2023/06/29 02:01:14;;;;;;;14.88;8.20;;;26.50;73.90;;;;;;5032269;28;20079;-75
2023/06/29 02:03:40;;;;;;;15.90;8.25;;;26.50;73.80;;;;;;5032107;28;20108;-75
2023/06/29 02:06:06;;;;;;;14.65;7.90;;;26.50;73.70;;;;;;5014187;28;20110;-75
2023/06/29 02:08:32;;;;;;;16.48;8.10;;;26.50;73.50;;;;;;5031789;28;20365;-76
2023/06/29 02:10:58;;;;;;;18.15;8.23;;;26.50;73.90;;;;;;5031738;28;20045;-76
2023/06/29 02:13:24;;;;;;;13.13;7.45;;;26.50;73.70;;;;;;5032099;28;20495;-75
2023/06/29 02:15:49;;;;;;;15.13;7.60;;;26.40;73.70;;;;;;5031761;28;20160;-75
2023/06/29 02:18:15;;;;;;;18.80;7.53;;;26.40;74.30;;;;;;5031587;28;20021;-75
2023/06/29 02:20:40;;;;;;;15.48;7.75;;;26.40;73.80;;;;;;5034909;28;20112;-77
2023/06/29 02:23:06;;;;;;;16.23;7.75;;;26.40;73.70;;;;;;5048914;28;20387;-76
2023/06/29 02:25:32;;;;;;;17.90;8.07;;;26.40;73.90;;;;;;5035668;28;20052;-77
2023/06/29 02:27:58;;;;;;;13.98;7.35;;;26.40;74.10;;;;;;5035631;28;20033;-76
2023/06/29 02:30:23;;;;;;;16.17;8.60;;;26.50;73.90;;;;;;5035448;28;20112;-76
2023/06/29 02:32:49;;;;;;;17.63;8.07;;;26.40;73.70;;;;;;5035446;28;20113;-75
2023/06/29 02:35:15;;;;;;;16.95;8.30;;;26.40;74.10;;;;;;5036055;28;20037;-75
2023/06/29 02:37:40;;;;;;;16.63;8.45;;;26.40;74.10;;;;;;5036346;28;20364;-76
2023/06/29 02:40:07;;;;;;;13.70;8.18;;;26.40;74.30;;;;;;5035911;28;20065;-76
2023/06/29 02:42:33;;;;;;;20.58;11.52;;;26.40;73.80;;;;;;5036172;28;20052;-75
2023/06/29 02:44:58;;;;;;;22.80;11.43;;;26.40;74.20;;;;;;5034904;28;20045;-74
2023/06/29 02:47:24;;;;;;;19.83;12.82;;;26.40;74.10;;;;;;5035336;28;20506;-75
2023/06/29 02:49:50;;;;;;;21.08;11.82;;;26.40;73.80;;;;;;5035284;28;20044;-76
2023/06/29 02:52:16;;;;;;;19.23;10.38;;;26.40;73.70;;;;;;5035652;28;20029;-75
2023/06/29 02:54:41;;;;;;;15.95;9.73;;;26.30;74.10;;;;;;5035148;28;20108;-74
2023/06/29 02:57:07;;;;;;;16.58;9.38;;;26.30;74.30;;;;;;5035071;28;20156;-76
2023/06/29 02:59:34;;;;;;;16.13;8.70;;;26.30;74.20;;;;;;5035080;28;20033;-74
2023/06/29 03:01:59;;;;;;;16.00;8.77;;;26.40;74.10;;;;;;5035057;28;20033;-75
2023/06/29 03:04:25;;;;;;;17.05;8.80;;;26.40;74.10;;;;;;5034798;28;20482;-74
2023/06/29 03:06:50;;;;;;;17.85;7.93;;;26.30;74.10;;;;;;5035063;28;20037;-75
2023/06/29 03:09:16;;;;;;;18.27;8.48;;;26.40;74.30;;;;;;5034917;28;20178;-75
2023/06/29 03:11:42;;;;;;;16.52;8.27;;;26.40;74.20;;;;;;5017204;28;20025;-75
2023/06/29 03:14:08;;;;;;;15.50;7.88;;;26.40;74.20;;;;;;5035161;28;20041;-75
2023/06/29 03:16:33;;;;;;;17.85;8.05;;;26.40;74.30;;;;;;5045705;28;20577;-75
2023/06/29 03:18:59;;;;;;;15.07;8.50;;;26.40;74.40;;;;;;5034938;28;20034;-75
2023/06/29 03:21:25;;;;;;;14.40;10.30;;;26.40;74.40;;;;;;5034422;28;20109;-75
2023/06/29 03:23:50;;;;;;;17.52;8.05;;;26.40;74.30;;;;;;5034893;28;20104;-75
2023/06/29 03:26:16;;;;;;;14.65;8.40;;;26.40;74.40;;;;;;5034604;28;20108;-75
2023/06/29 03:28:42;;;;;;;16.10;8.52;;;26.40;74.40;;;;;;5034666;28;20108;-74
2023/06/29 03:31:08;;;;;;;14.55;7.75;;;26.30;74.50;;;;;;5034660;28;20553;-75
2023/06/29 03:33:33;;;;;;;14.75;7.60;;;26.30;74.60;;;;;;5033893;28;20037;-75
2023/06/29 03:35:59;;;;;;;17.13;7.80;;;26.30;74.60;;;;;;5034692;28;20065;-74
2023/06/29 03:38:25;;;;;;;19.33;8.77;;;26.30;74.70;;;;;;5034250;28;20029;-75
2023/06/29 03:40:50;;;;;;;16.85;8.02;;;26.30;75.00;;;;;;5034607;28;20078;-75
2023/06/29 03:43:16;;;;;;;18.15;8.30;;;26.20;75.10;;;;;;5016622;28;20450;-76
2023/06/29 03:45:42;;;;;;;15.73;7.55;;;26.10;75.20;;;;;;5034426;28;20052;-77
2023/06/29 03:48:07;;;;;;;15.52;7.63;;;26.10;75.40;;;;;;5034324;28;20459;-75
2023/06/29 03:50:33;;;;;;;18.70;8.30;;;26.10;75.60;;;;;;5034241;28;20038;-76
2023/06/29 03:52:59;;;;;;;16.20;7.80;;;26.10;75.60;;;;;;5034002;28;20113;-76
2023/06/29 03:55:25;;;;;;;19.95;8.88;;;26.00;75.60;;;;;;5034082;28;20033;-73
2023/06/29 03:57:50;;;;;;;18.70;8.23;;;26.00;75.80;;;;;;5034022;28;20428;-75
2023/06/29 04:00:16;;;;;;;15.32;7.85;;;26.10;75.80;;;;;;5033651;28;20045;-75
2023/06/29 04:02:42;;;;;;;15.00;8.23;;;26.10;76.30;;;;;;5033997;28;20045;-76
2023/06/29 04:05:09;;;;;;;15.52;8.13;;;26.10;75.60;;;;;;5033881;28;20042;-75
2023/06/29 04:07:35;;;;;;;16.73;7.55;;;26.20;76.30;;;;;;5034424;28;20033;-75
2023/06/29 04:10:01;;;;;;;14.43;8.05;;;26.20;75.50;;;;;;5040979;28;20029;-75
2023/06/29 04:12:27;;;;;;;17.05;8.07;;;26.20;75.80;;;;;;5044314;28;20037;-73
2023/06/29 04:14:52;;;;;;;15.30;7.63;;;26.20;75.20;;;;;;5033975;28;20087;-75
2023/06/29 04:17:18;;;;;;;14.63;7.82;;;26.30;75.30;;;;;;5016075;28;20111;-74
2023/06/29 04:19:44;;;;;;;17.17;8.15;;;26.30;75.20;;;;;;5033371;28;20033;-75
2023/06/29 04:22:09;;;;;;;15.32;8.18;;;26.30;74.90;;;;;;5033545;28;20402;-76
2023/06/29 04:24:35;;;;;;;12.95;7.65;;;26.40;75.20;;;;;;5033460;28;20037;-75
2023/06/29 04:27:01;;;;;;;15.60;7.72;;;26.40;75.00;;;;;;5033677;28;20427;-76
2023/06/29 04:29:27;;;;;;;18.48;8.23;;;26.40;74.90;;;;;;5033501;28;20045;-76
2023/06/29 04:31:54;;;;;;;21.00;8.77;;;26.30;75.20;;;;;;5033207;28;20446;-74
2023/06/29 04:34:23;;;;;;;16.50;8.05;;;26.30;75.10;;;;;;5033679;28;20103;-76
2023/06/29 04:36:48;;;;;;;14.75;8.38;;;26.30;75.10;;;;;;5033374;28;20508;-75
2023/06/29 04:39:15;;;;;;;19.92;8.35;;;26.40;74.80;;;;;;5033521;28;20105;-76
2023/06/29 04:41:41;;;;;;;17.58;8.38;;;26.50;74.90;;;;;;5033312;28;20033;-75
2023/06/29 04:44:08;;;;;;;14.43;7.57;;;26.40;74.70;;;;;;5032212;28;20052;-75
2023/06/29 04:46:38;;;;;;;15.88;8.35;;;26.50;74.70;;;;;;5015243;28;20136;-76
2023/06/29 04:49:06;;;;;;;16.38;9.02;;;26.50;75.00;;;;;;5033292;28;20549;-76
2023/06/29 04:51:38;;;;;;;17.63;8.52;;;26.50;74.90;;;;;;5033139;28;20037;-76
2023/06/29 04:54:07;;;;;;;16.15;8.65;;;26.40;74.50;;;;;;5033117;28;20556;-75
2023/06/29 04:56:33;;;;;;;15.35;8.50;;;26.50;75.20;;;;;;5015343;28;20037;-76
2023/06/29 04:58:59;;;;;;;20.17;8.50;;;26.40;75.50;;;;;;5015054;28;20034;-77
2023/06/29 05:01:24;;;;;;;15.10;8.65;;;26.50;75.60;;;;;;5032516;28;20051;-75
2023/06/29 05:03:50;;;;;;;15.90;8.05;;;26.50;75.30;;;;;;5034617;28;20091;-76
2023/06/29 05:06:16;;;;;;;16.65;8.95;;;26.60;75.30;;;;;;5030954;28;20046;-75
2023/06/29 05:08:42;;;;;;;13.05;8.15;;;26.60;75.20;;;;;;5032670;28;20388;-74
2023/06/29 05:11:07;;;;;;;22.02;8.93;;;26.60;75.30;;;;;;5032653;28;20037;-76
2023/06/29 05:13:35;;;;;;;14.73;8.65;;;26.60;75.30;;;;;;5032611;28;20088;-75
2023/06/29 05:16:03;;;;;;;21.67;8.13;;;26.60;75.10;;;;;;5032370;28;20055;-75
2023/06/29 05:18:29;;;;;;;13.50;8.25;;;26.80;75.30;;;;;;5032684;28;20093;-76
2023/06/29 05:20:54;;;;;;;15.52;8.93;;;26.90;75.00;;;;;;5032256;28;20564;-75
2023/06/29 05:23:20;;;;;;;17.02;8.60;;;27.10;74.60;;;;;;5032521;28;20029;-75
2023/06/29 05:25:46;;;;;;;14.60;8.15;;;27.20;74.20;;;;;;5032701;28;20117;-76
2023/06/29 05:28:11;;;;;;;14.80;8.43;;;27.30;73.90;;;;;;5032326;28;20034;-76
2023/06/29 05:30:37;;;;;;;13.88;7.63;;;27.50;73.60;;;;;;5032293;28;20026;-75
2023/06/29 05:33:03;;;;;;;16.00;8.70;;;27.60;73.30;;;;;;5032271;28;20037;-75
2023/06/29 05:35:31;;;;;;;15.05;7.75;;;27.90;72.90;;;;;;5032496;28;20045;-76
2023/06/29 05:37:57;;;;;;;14.45;8.10;;;28.00;72.30;;;;;;5032285;28;20063;-75
2023/06/29 05:40:23;;;;;;;16.02;7.82;;;28.20;72.00;;;;;;5032498;28;20041;-76
2023/06/29 05:42:49;;;;;;;12.95;7.35;;;28.40;71.60;;;;;;5032108;28;20029;-74
2023/06/29 05:45:15;;;;;;;12.35;7.32;;;28.60;70.80;;;;;;5032189;28;20521;-76
2023/06/29 05:47:41;;;;;;;15.10;7.78;;;28.70;70.20;;;;;;5032309;28;20025;-76
2023/06/29 05:50:07;;;;;;;14.77;7.85;;;28.80;70.20;;;;;;5032044;28;20033;-75
2023/06/29 05:52:37;;;;;;;13.05;8.23;;;29.00;69.50;;;;;;5031962;28;20123;-77
2023/06/29 05:55:03;;;;;;;13.63;7.82;;;29.00;68.90;;;;;;5032021;28;20029;-76
2023/06/29 05:57:29;;;;;;;12.00;7.63;;;29.10;69.20;;;;;;5034976;28;20044;-76
2023/06/29 05:59:55;;;;;;;14.13;7.40;;;29.20;68.70;;;;;;5033677;28;20034;-76
2023/06/29 06:02:21;;;;;;;13.98;7.78;;;29.10;69.00;;;;;;5034505;28;20479;-76
2023/06/29 06:04:46;;;;;;;12.40;7.55;;;29.20;68.10;;;;;;5013905;28;20137;-75
2023/06/29 06:07:27;;;;;;;14.38;7.45;;;29.30;67.90;;;;;;5032213;28;20053;-76
2023/06/29 06:09:52;;;;;;;16.00;8.02;;;29.40;67.90;;;;;;5032058;28;20072;-78
2023/06/29 06:12:18;;;;;;;13.88;7.35;;;29.60;67.00;;;;;;5032150;28;20061;-76
2023/06/29 06:14:44;;;;;;;14.23;7.68;;;29.70;66.80;;;;;;5032265;28;20413;-75
2023/06/29 06:17:09;;;;;;;11.90;7.15;;;29.80;67.20;;;;;;5032311;28;20038;-76
2023/06/29 06:19:35;;;;;;;18.65;7.93;;;29.90;66.10;;;;;;5031859;28;20033;-76
2023/06/29 06:22:01;;;;;;;12.95;7.68;;;30.10;65.40;;;;;;5014282;28;20106;-77
2023/06/29 06:24:26;;;;;;;11.02;7.47;;;30.10;65.60;;;;;;5031485;28;20036;-78
2023/06/29 06:26:52;;;;;;;12.57;7.55;;;30.40;65.10;;;;;;5013961;28;20041;-77
2023/06/29 06:29:18;;;;;;;13.18;7.13;;;30.60;64.80;;;;;;5031791;28;20037;-77
2023/06/29 06:31:43;;;;;;;12.90;7.63;;;30.70;64.00;;;;;;5031520;28;20410;-77
2023/06/29 06:34:09;;;;;;;15.63;8.55;;;30.90;63.60;;;;;;5031823;28;20112;-76
2023/06/29 06:36:35;;;;;;;15.75;7.93;;;31.00;63.40;;;;;;5032161;28;20125;-77
2023/06/29 06:39:00;;;;;;;11.10;7.40;;;31.00;63.40;;;;;;5032837;28;20112;-77
2023/06/29 06:41:26;;;;;;;13.05;7.60;;;31.20;63.40;;;;;;5032185;28;20029;-77
2023/06/29 06:43:52;;;;;;;11.88;6.82;;;31.30;62.60;;;;;;5031596;28;20143;-77
2023/06/29 06:46:17;;;;;;;11.15;6.88;;;31.60;62.50;;;;;;5031802;28;20506;-77
2023/06/29 06:48:43;;;;;;;11.05;7.22;;;31.70;62.10;;;;;;5031767;28;20026;-75
2023/06/29 06:51:09;;;;;;;13.05;7.43;;;31.80;61.20;;;;;;5031857;28;20567;-78
2023/06/29 06:53:34;;;;;;;13.95;7.90;;;31.80;61.40;;;;;;5018592;28;20048;-77
2023/06/29 06:56:00;;;;;;;14.43;6.75;;;31.90;60.90;;;;;;5041577;28;20140;-78
2023/06/29 06:58:26;;;;;;;15.20;6.45;;;31.90;61.00;;;;;;5031537;28;20493;-76
2023/06/29 07:00:52;;;;;;;12.93;6.85;;;32.00;60.80;;;;;;5031398;28;20068;-76
2023/06/29 07:03:19;;;;;;;10.80;6.88;;;32.10;60.30;;;;;;5031847;28;20025;-78
2023/06/29 07:05:46;;;;;;;10.95;7.13;;;32.10;59.50;;;;;;5031522;28;20045;-78
2023/06/29 07:08:12;;;;;;;13.70;8.00;;;32.10;59.40;;;;;;5033457;28;20037;-77
2023/06/29 07:10:37;;;;;;;10.68;7.68;;;31.90;59.80;;;;;;5035125;28;20403;-78
2023/06/29 07:13:03;;;;;;;13.90;8.15;;;31.90;59.80;;;;;;5034901;28;20041;-77
2023/06/29 07:15:29;;;;;;;13.38;6.95;;;31.90;59.80;;;;;;5034703;28;20037;-76
2023/06/29 07:17:54;;;;;;;17.17;8.02;;;32.00;59.90;;;;;;5034849;28;20572;-77
2023/06/29 07:20:20;;;;;;;13.18;8.23;;;32.00;59.80;;;;;;5034944;28;20374;-75
2023/06/29 07:22:46;;;;;;;14.73;6.82;;;32.00;59.70;;;;;;5034525;28;20033;-77
2023/06/29 07:25:11;;;;;;;11.40;7.18;;;32.10;59.70;;;;;;5034714;28;20064;-76
2023/06/29 07:27:38;;;;;;;12.95;6.90;;;32.20;59.40;;;;;;5016467;28;20079;-77
2023/06/29 07:30:05;;;;;;;11.40;6.78;;;32.20;58.80;;;;;;5034739;28;20438;-77
2023/06/29 07:32:31;;;;;;;11.90;6.45;;;32.30;58.90;;;;;;5034702;28;20030;-76
2023/06/29 07:34:56;;;;;;;9.90;5.95;;;32.20;58.20;;;;;;5034567;28;20045;-78
2023/06/29 07:37:23;;;;;;;14.07;6.68;;;32.30;58.00;;;;;;5034938;28;20099;-77
2023/06/29 07:39:48;;;;;;;10.27;6.68;;;32.40;58.00;;;;;;5034643;28;20534;-78
2023/06/29 07:42:14;;;;;;;11.60;6.95;;;32.50;57.90;;;;;;5034449;28;20070;-76
2023/06/29 07:44:40;;;;;;;13.00;6.70;;;32.60;57.90;;;;;;5034087;28;20048;-75
2023/06/29 07:47:06;;;;;;;10.10;6.78;;;32.70;57.70;;;;;;5042127;28;20034;-75
2023/06/29 07:49:32;;;;;;;13.63;6.40;;;32.80;57.30;;;;;;5042413;28;20069;-78
2023/06/29 07:51:58;;;;;;;11.60;7.10;;;32.80;57.60;;;;;;5034375;28;20033;-75
2023/06/29 07:54:23;;;;;;;12.20;7.30;;;32.80;57.80;;;;;;5016341;28;20049;-78
2023/06/29 07:56:49;;;;;;;11.23;6.65;;;32.80;57.30;;;;;;5016337;28;20091;-75
2023/06/29 07:59:15;;;;;;;12.07;7.43;;;32.80;57.90;;;;;;5016486;28;20042;-78
2023/06/29 08:01:41;;;;;;;12.60;7.78;;;32.80;57.20;;;;;;5034329;28;20442;-77
2023/06/29 08:04:07;;;;;;;36.63;9.10;;;32.60;57.00;;;;;;5034597;28;20458;-75
2023/06/29 08:06:34;;;;;;;33.70;8.57;;;32.50;57.30;;;;;;5034039;28;20072;-78
2023/06/29 08:09:00;;;;;;;75.30;11.95;;;32.40;56.90;;;;;;5034301;28;20034;-79
2023/06/29 08:11:27;;;;;;;19.27;7.00;;;32.40;56.90;;;;;;5034013;28;20542;-78
2023/06/29 08:13:53;;;;;;;10.63;6.90;;;32.40;56.50;;;;;;5016125;28;20045;-77
2023/06/29 08:16:19;;;;;;;8.65;6.18;;;32.30;56.50;;;;;;5033553;28;20033;-79
2023/06/29 08:18:44;;;;;;;9.80;6.40;;;32.20;56.50;;;;;;5033862;28;20026;-79
2023/06/29 08:21:13;;;;;;;16.13;6.75;;;32.10;56.50;;;;;;5033752;28;20041;-78
2023/06/29 08:23:38;;;;;;;11.52;6.40;;;32.00;56.70;;;;;;5033648;28;20044;-79
2023/06/29 08:26:04;;;;;;;13.38;7.25;;;31.90;56.50;;;;;;5033525;28;20121;-78
2023/06/29 08:28:30;;;;;;;11.45;6.57;;;31.90;56.50;;;;;;5034152;28;20506;-78
2023/06/29 08:30:56;;;;;;;13.13;6.80;;;31.80;56.60;;;;;;5033450;28;20030;-78
2023/06/29 08:33:23;;;;;;;15.27;7.30;;;31.80;56.80;;;;;;5033911;28;20128;-79
2023/06/29 08:35:50;;;;;;;9.95;6.05;;;31.80;56.70;;;;;;5034118;28;20021;-79
2023/06/29 08:38:16;;;;;;;12.57;6.82;;;31.70;56.60;;;;;;5033695;28;20040;-79
2023/06/29 08:40:46;;;;;;;10.63;6.15;;;31.70;56.70;;;;;;5036284;28;20082;-79
2023/06/29 08:43:14;;;;;;;7.88;5.97;;;31.60;56.30;;;;;;5045551;28;20622;-79
2023/06/29 08:45:40;;;;;;;11.95;6.90;;;31.60;56.00;;;;;;5033311;28;20089;-78
2023/06/29 08:48:07;;;;;;;8.65;6.10;;;31.50;55.80;;;;;;5033419;28;20056;-78
2023/06/29 08:50:35;;;;;;;13.18;6.80;;;31.50;55.80;;;;;;5033633;28;20067;-81
2023/06/29 08:53:01;;;;;;;11.95;7.00;;;31.50;55.80;;;;;;5033406;28;20026;-81
2023/06/29 08:55:27;;;;;;;10.48;6.75;;;31.50;55.90;;;;;;5033350;28;20471;-81
2023/06/29 08:57:54;;;;;;;12.10;6.72;;;31.50;56.10;;;;;;5033193;28;20029;-80
2023/06/29 09:00:22;;;;;;;13.15;6.55;;;31.60;56.10;;;;;;5033556;28;20078;-83
2023/06/29 09:02:51;;;;;;;10.82;6.65;;;31.60;56.00;;;;;;5034246;28;20025;-82
2023/06/29 09:05:17;;;;;;;11.85;6.75;;;31.60;55.60;;;;;;5033398;28;20064;-77
2023/06/29 09:07:43;;;;;;;12.60;6.72;;;31.50;55.90;;;;;;5032654;28;20105;-79
2023/06/29 09:10:11;;;;;;;14.25;6.60;;;31.60;56.00;;;;;;5032965;28;20072;-82
2023/06/29 09:12:37;;;;;;;12.32;6.90;;;31.50;56.00;;;;;;5033151;28;20029;-77
2023/06/29 09:15:10;;;;;;;9.70;6.78;;;31.50;56.00;;;;;;5018403;28;20117;-83
2023/06/29 09:17:36;;;;;;;11.85;7.10;;;31.40;56.30;;;;;;5035210;28;20029;-85
2023/06/29 09:20:13;;;;;;;10.07;7.07;;;31.40;56.40;;;;;;5034255;28;20083;-81
2023/06/29 09:22:39;;;;;;;11.63;7.00;;;31.20;56.70;;;;;;5032785;28;20037;-79
2023/06/29 09:25:06;;;;;;;9.68;6.72;;;31.00;56.70;;;;;;5033633;28;20049;-77
2023/06/29 09:27:34;;;;;;;17.25;8.32;;;31.00;57.20;;;;;;5032630;28;20033;-81
2023/06/29 09:30:02;;;;;;;12.43;7.38;;;31.00;57.20;;;;;;5032579;28;20029;-79
2023/06/29 09:32:35;;;;;;;11.80;7.18;;;31.10;57.10;;;;;;5032895;28;20034;-77
2023/06/29 09:35:06;;;;;;;13.38;7.40;;;31.10;57.10;;;;;;5024515;28;20030;-81
2023/06/29 09:37:33;;;;;;;12.68;7.40;;;31.20;57.20;;;;;;5038295;28;20030;-84
2023/06/29 09:39:59;;;;;;;10.65;7.13;;;31.30;57.30;;;;;;5029740;28;20116;-84
2023/06/29 09:42:29;;;;;;;10.75;7.45;;;31.20;57.10;;;;;;5031306;28;20394;-84
2023/06/29 09:45:02;;;;;;;18.40;7.80;;;31.20;57.10;;;;;;5033504;28;20056;-82
2023/06/29 09:47:29;;;;;;;14.00;7.20;;;31.20;57.70;;;;;;5028408;28;20122;-84
2023/06/29 09:49:54;;;;;;;15.10;7.50;;;31.30;57.00;;;;;;5044123;28;20044;-85
2023/06/29 09:52:21;;;;;;;13.85;7.43;;;31.40;57.00;;;;;;5025050;28;20121;-81
2023/06/29 09:54:49;;;;;;;14.48;8.00;;;31.40;56.90;;;;;;5013667;28;20052;-83
2023/06/29 09:57:15;;;;;;;15.90;7.45;;;31.40;56.40;;;;;;5013873;28;20068;-82
2023/06/29 09:59:45;;;;;;;15.68;7.63;;;31.40;56.60;;;;;;5016784;28;20387;-83
2023/06/29 10:02:12;;;;;;;22.85;7.80;;;31.40;56.80;;;;;;5014097;28;20029;-78
2023/06/29 10:04:40;;;;;;;11.27;7.72;;;31.40;56.50;;;;;;5023394;28;20072;-75
2023/06/29 10:07:10;;;;;;;14.18;7.78;;;31.50;56.60;;;;;;5012343;28;20161;-75
2023/06/29 10:09:38;;;;;;;18.55;8.90;;;31.40;57.60;;;;;;5012203;28;20026;-76
2023/06/29 10:12:07;;;;;;;12.60;7.90;;;31.40;58.00;;;;;;5010589;28;20518;-75
2023/06/29 10:14:34;;;;;;;13.30;6.90;;;31.50;58.20;;;;;;5011840;28;20026;-75
2023/06/29 10:17:03;;;;;;;19.33;10.70;;;31.40;57.90;;;;;;5012215;28;20443;-74
2023/06/29 10:19:31;;;;;;;11.35;7.30;;;31.50;58.10;;;;;;5011890;28;20373;-76
2023/06/29 10:22:01;;;;;;;10.30;6.35;;;31.50;58.00;;;;;;5011986;28;20030;-74
2023/06/29 10:24:34;;;;;;;11.43;7.00;;;31.50;57.90;;;;;;5012027;28;20065;-76
2023/06/29 10:27:01;;;;;;;;;;;31.40;58.20;;;;;;5012875;28;20046;-75
2023/06/29 10:29:27;;;;;;;10.68;7.15;;;31.30;57.70;;;;;;5030395;28;19905;-75
2023/06/29 10:31:59;;;;;;;11.85;7.28;;;31.30;58.30;;;;;;5017729;28;20092;-75
2023/06/29 10:34:27;;;;;;;9.37;7.13;;;31.20;58.10;;;;;;5011604;28;20444;-75
2023/06/29 10:36:59;;;;;;;14.38;7.97;;;31.30;58.40;;;;;;5011464;28;20682;-76
2023/06/29 10:39:44;;;;;;;14.88;7.55;;;31.30;57.90;;;;;;5010147;28;20088;-76
2023/06/29 10:42:38;;;;;;;10.93;7.25;;;31.20;58.10;;;;;;5012091;28;20396;-74
2023/06/29 10:45:18;;;;;;;12.35;7.72;;;31.20;59.30;;;;;;5015187;28;20061;-77
2023/06/29 10:47:58;;;;;;;11.05;7.38;;;31.20;58.70;;;;;;5015463;28;20167;-76
2023/06/29 10:50:46;;;;;;;12.18;7.35;;;31.30;58.70;;;;;;5015482;28;20026;-76
2023/06/29 10:53:16;;;;;;;12.32;6.97;;;31.40;59.40;;;;;;5015365;28;20041;-76
2023/06/29 10:55:50;;;;;;;9.43;7.45;;;31.50;58.20;;;;;;5015573;28;20372;-75
2023/06/29 10:58:23;;;;;;;8.15;6.90;;;31.50;58.70;;;;;;5015320;28;20049;-75
2023/06/29 11:00:51;;;;;;;11.75;6.88;;;31.50;57.90;;;;;;5015567;28;20070;-74
2023/06/29 11:03:19;;;;;;;11.68;7.05;;;31.60;58.10;;;;;;5015277;28;20042;-76
2023/06/29 11:05:51;;;;;;;11.45;7.20;;;31.60;58.10;;;;;;5015280;28;20053;-78
2023/06/29 11:08:20;;;;;;;12.55;7.15;;;31.70;58.00;;;;;;5015124;28;20069;-75
2023/06/29 11:10:46;;;;;;;12.88;7.45;;;31.60;57.80;;;;;;5015340;28;20064;-76
2023/06/29 11:13:12;;;;;;;13.07;7.80;;;31.60;58.10;;;;;;5014189;28;20101;-77
2023/06/29 11:15:38;;;;;;;11.20;7.85;;;31.60;58.00;;;;;;5013869;28;20440;-76
2023/06/29 11:18:05;;;;;;;9.73;7.15;;;31.70;58.00;;;;;;5015563;28;20048;-76
2023/06/29 11:20:33;;;;;;;12.25;7.57;;;31.80;57.90;;;;;;5014344;28;20053;-75
2023/06/29 11:22:59;;;;;;;9.30;7.03;;;31.80;57.70;;;;;;5029313;28;20034;-76
2023/06/29 11:25:26;;;;;;;10.82;7.13;;;31.70;58.30;;;;;;5015334;28;20129;-75
2023/06/29 11:27:52;;;;;;;15.30;8.18;;;31.80;58.70;;;;;;5014814;28;20072;-74
2023/06/29 11:30:20;;;;;;;10.40;7.57;;;31.90;58.00;;;;;;5014649;28;20395;-77
2023/06/29 11:32:49;;;;;;;10.55;7.13;;;32.10;57.70;;;;;;5014761;28;20432;-75
2023/06/29 11:35:15;;;;;;;11.20;7.07;;;32.10;57.70;;;;;;5013248;28;20479;-75
2023/06/29 11:37:41;;;;;;;11.68;7.35;;;32.10;57.90;;;;;;5013128;28;20065;-76
2023/06/29 11:40:22;;;;;;;15.05;10.98;;;32.20;57.70;;;;;;5014784;28;20026;-78
2023/06/29 11:42:49;;;;;;;13.40;8.85;;;32.20;57.30;;;;;;5014638;28;20030;-75
2023/06/29 11:45:16;;;;;;;12.80;7.32;;;32.20;57.20;;;;;;5014497;28;20458;-76
2023/06/29 11:47:51;;;;;;;8.73;6.88;;;32.10;57.10;;;;;;5014478;28;20038;-77
2023/06/29 11:50:17;;;;;;;12.15;7.50;;;32.10;57.40;;;;;;5014605;28;20172;-75
2023/06/29 11:52:44;;;;;;;8.48;7.10;;;32.10;57.40;;;;;;5014078;28;20082;-75
2023/06/29 11:55:15;;;;;;;9.25;7.95;;;32.10;57.30;;;;;;5014006;28;20108;-76
2023/06/29 11:57:43;;;;;;;9.23;7.05;;;32.10;57.10;;;;;;5012947;28;20153;-74
2023/06/29 12:00:30;;;;;;;9.05;7.10;;;32.20;57.00;;;;;;5013189;28;20037;-75
2023/06/29 12:02:56;;;;;;;10.27;7.07;;;32.20;56.70;;;;;;5014151;28;20145;-75
2023/06/29 12:05:28;;;;;;;9.52;7.68;;;32.30;56.70;;;;;;5014237;28;20145;-76
2023/06/29 12:07:54;;;;;;;9.80;7.10;;;32.30;56.60;;;;;;5013029;28;20388;-77
2023/06/29 12:10:24;;;;;;;12.85;7.50;;;32.30;56.50;;;;;;5014115;28;20030;-77
2023/06/29 12:12:58;;;;;;;9.90;6.85;;;32.30;56.60;;;;;;5014047;28;20105;-77
2023/06/29 12:15:26;;;;;;;11.80;7.70;;;32.30;56.40;;;;;;5016363;28;20033;-76
2023/06/29 12:17:58;;;;;;;11.68;9.75;;;32.20;56.60;;;;;;5021606;28;20118;-73
2023/06/29 12:20:24;;;;;;;11.45;9.27;;;32.20;56.70;;;;;;5014090;28;20038;-76
2023/06/29 12:22:55;;;;;;;13.68;7.65;;;32.20;56.50;;;;;;5012670;28;20080;-76
2023/06/29 12:25:22;;;;;;;8.15;6.97;;;32.20;56.50;;;;;;5013879;28;20061;-75
2023/06/29 12:27:49;;;;;;;10.77;7.80;;;32.20;56.50;;;;;;5013651;28;20034;-74
2023/06/29 12:30:20;;;;;;;11.18;6.90;;;32.10;56.50;;;;;;5014041;28;20045;-75
2023/06/29 12:32:46;;;;;;;10.85;7.30;;;32.20;56.50;;;;;;5013516;28;20040;-76
2023/06/29 12:35:16;;;;;;;9.48;7.05;;;32.20;56.10;;;;;;5012425;28;20037;-74
2023/06/29 12:37:42;;;;;;;10.55;8.50;;;32.20;55.90;;;;;;5013662;28;20099;-76